logo dgac
Martes 23 de Julio del 2019
Buscar por aerodromo o helipuerto
Ingrese nombre de aeródromo, localidad o designador OACI:
METAR del 22-07-2019 a las 20:00 UTC
METAR SCGZ 222000Z 26018KT 9999 VCSH FEW023 SCT036 02/01 Q0991
Viento: dirección 260 grados, velocidad 18 nudos
Visibilidad: 10 km o más
En los alrededores, Chubascos
Nubes: Escasa nubosidad a 2300 pies sobre el nivel del aeródromo
Nubes: Nubosidad parcial a 3600 pies sobre el nivel del aeródromo
Temperatura: 2 °C
Rocío: 1 °C
Humedad_relativa: 93%
Presión: 991 hPa
METAR del 22-07-2019 a las 20:00 UTC
METAR SCGZ 222000Z 26018KT 9999 VCSH FEW023 SCT036 02/01 Q0991
Viento: dirección 260 grados, velocidad 18 nudos
Visibilidad: 10 km o más
En los alrededores, Chubascos
Nubes: Escasa nubosidad a 2300 pies sobre el nivel del aeródromo
Nubes: Nubosidad parcial a 3600 pies sobre el nivel del aeródromo
Temperatura: 2 °C
Rocío: 1 °C
Humedad_relativa: 93%
Presión: 991 hPa
METAR del 22-07-2019 a las 19:00 UTC
METAR SCGZ 221900Z 26020KT 9999 VCSH FEW026 BKN040 02/01 Q0991 RESHRA
Viento: dirección 260 grados, velocidad 20 nudos
Visibilidad: 10 km o más
En los alrededores, Chubascos
Nubes: Escasa nubosidad a 2600 pies sobre el nivel del aeródromo
Nubes: Nublado a 4000 pies sobre el nivel del aeródromo
Temperatura: 2 °C
Rocío: 1 °C
Humedad_relativa: 93%
Presión: 991 hPa
Se observó recientemente ChubascosLluvia
METAR del 22-07-2019 a las 18:00 UTC
METAR SCGZ 221800Z 26020KT 9999 FEW033 SCT043 BKN083 04/M01 Q0990
Viento: dirección 260 grados, velocidad 20 nudos
Visibilidad: 10 km o más
Nubes: Escasa nubosidad a 3300 pies sobre el nivel del aeródromo
Nubes: Nubosidad parcial a 4300 pies sobre el nivel del aeródromo
Nubes: Nublado a 8300 pies sobre el nivel del aeródromo
Temperatura: 4 °C
Rocío: -1 °C
Humedad_relativa: 70%
Presión: 990 hPa
METAR del 22-07-2019 a las 17:00 UTC
METAR SCGZ 221700Z 25018G30KT 9999 FEW033 SCT050 BKN086 05/M02 Q0990
Viento: dirección 250 grados, velocidad 18 nudos, con ráfagas de velocidad máxima de 30Nudos
Visibilidad: 10 km o más
Nubes: Escasa nubosidad a 3300 pies sobre el nivel del aeródromo
Nubes: Nubosidad parcial a 5000 pies sobre el nivel del aeródromo
Nubes: Nublado a 8600 pies sobre el nivel del aeródromo
Temperatura: 5 °C
Rocío: -2 °C
Humedad_relativa: 61%
Presión: 990 hPa
METAR del 22-07-2019 a las 16:00 UTC
METAR SCGZ 221600Z 26018G30KT 9999 FEW020 SCT050 BKN086 04/M01 Q0990
Viento: dirección 260 grados, velocidad 18 nudos, con ráfagas de velocidad máxima de 30Nudos
Visibilidad: 10 km o más
Nubes: Escasa nubosidad a 2000 pies sobre el nivel del aeródromo
Nubes: Nubosidad parcial a 5000 pies sobre el nivel del aeródromo
Nubes: Nublado a 8600 pies sobre el nivel del aeródromo
Temperatura: 4 °C
Rocío: -1 °C
Humedad_relativa: 70%
Presión: 990 hPa
METAR del 22-07-2019 a las 15:00 UTC
METAR SCGZ 221500Z 25019G30KT 9999 FEW016 SCT043 BKN100 03/01 Q0991
Viento: dirección 250 grados, velocidad 19 nudos, con ráfagas de velocidad máxima de 30Nudos
Visibilidad: 10 km o más
Nubes: Escasa nubosidad a 1600 pies sobre el nivel del aeródromo
Nubes: Nubosidad parcial a 4300 pies sobre el nivel del aeródromo
Nubes: Nublado a 10000 pies sobre el nivel del aeródromo
Temperatura: 3 °C
Rocío: 1 °C
Humedad_relativa: 87%
Presión: 991 hPa
METAR del 22-07-2019 a las 14:00 UTC
METAR SCGZ 221400Z 24013KT 9999 SCT030 SCT036 BKN080 02/M00 Q0991
Viento: dirección 240 grados, velocidad 13 nudos
Visibilidad: 10 km o más
Nubes: Nubosidad parcial a 3000 pies sobre el nivel del aeródromo
Nubes: Nubosidad parcial a 3600 pies sobre el nivel del aeródromo
Nubes: Nublado a 8000 pies sobre el nivel del aeródromo
Temperatura: 2 °C
Rocío: -0 °C
Humedad_relativa: 87%
Presión: 991 hPa
METAR del 22-07-2019 a las 13:00 UTC
METAR SCGZ 221300Z 24012KT 9999 FEW026 SCT036 02/M01 Q0991
Viento: dirección 240 grados, velocidad 12 nudos
Visibilidad: 10 km o más
Nubes: Escasa nubosidad a 2600 pies sobre el nivel del aeródromo
Nubes: Nubosidad parcial a 3600 pies sobre el nivel del aeródromo
Temperatura: 2 °C
Rocío: -1 °C
Humedad_relativa: 81%
Presión: 991 hPa
METAR del 22-07-2019 a las 12:00 UTC
METAR SCGZ 221200Z 25013KT 9999 SCT036 SCT060 02/M02 Q0991
Viento: dirección 250 grados, velocidad 13 nudos
Visibilidad: 10 km o más
Nubes: Nubosidad parcial a 3600 pies sobre el nivel del aeródromo
Nubes: Nubosidad parcial a 6000 pies sobre el nivel del aeródromo
Temperatura: 2 °C
Rocío: -2 °C
Humedad_relativa: 75%
Presión: 991 hPa